Seafrance Rodin — FOBQ — position and weather

sailwx.info

Track history (hours):
 
Tides and Currents Weather Stations Pressure Air Temp Water Temp Dewpoint Dewpoint Depression Visibility Wind Speed Wind Dir Waves Ship Positions

Seafrance Rodin

Operator: SeaFrance

Last reported at 2017-Aug-23 13:30 UTC. Time now 2017-Aug-23 13:36 UTC.
Position N 51°07' E 001°20'.

Length 185 m; draft 6 m.

MMSI: 227022800.

Date/timePositionNaut miles runAvg speedWind from/ knotsBaromVisibWave heightAir tempDewpointWater temp
2017-Aug-23 13:30N 51°07' E 001°20'613.0
2017-Aug-23 13:00N 51°06' E 001°30'918.9
2017-Aug-23 12:31N 50°60' E 001°41'713.0
2017-Aug-23 12:00N 50°58' E 001°51'0 0.0
2017-Aug-23 11:30N 50°58' E 001°51'1 1.3
2017-Aug-23 11:00N 50°58' E 001°50'714.8
2017-Aug-23 10:31N 51°00' E 001°39'918.7
2017-Aug-23 10:00N 51°04' E 001°26'5 8.3
2017-Aug-23 09:26N 51°07' E 001°20'0 0.0
2017-Aug-23 08:53N 51°07' E 001°20'3 9.2
2017-Aug-23 08:30N 51°06' E 001°25'917.4
2017-Aug-23 08:00N 51°01' E 001°37'917.2
2017-Aug-23 07:30N 50°58' E 001°49'1 2.3
2017-Aug-23 07:00N 50°58' E 001°51'0 0.0
2017-Aug-23 06:30N 50°58' E 001°51'2 4.4
2017-Aug-23 06:00N 50°58' E 001°48'815.5
2017-Aug-23 05:30N 51°00' E 001°36'918.0
2017-Aug-23 05:00N 51°05' E 001°24'3 6.2
2017-Aug-23 04:29N 51°07' E 001°20'0 0.0
2017-Aug-23 03:59N 51°07' E 001°20'3 6.1
2017-Aug-23 03:31N 51°07' E 001°25'917.9
2017-Aug-23 03:01N 51°02' E 001°37'917.4
2017-Aug-23 02:31N 50°58' E 001°49'1 2.3
2017-Aug-23 02:00N 50°58' E 001°51'0 0.0
2017-Aug-23 01:30N 50°58' E 001°51'2 3.9
2017-Aug-23 01:01N 50°58' E 001°48'917.0
2017-Aug-23 00:30N 50°60' E 001°35'816.1
2017-Aug-23 00:00N 51°05' E 001°25'4 8.0
2017-Aug-22 23:30N 51°07' E 001°20'0 0.0
2017-Aug-22 23:00N 51°07' E 001°20'4 7.6
2017-Aug-22 22:30N 51°07' E 001°26'816.9
2017-Aug-22 22:00N 51°02' E 001°37'815.8
2017-Aug-22 21:30N 50°58' E 001°48'2 3.9
2017-Aug-22 21:00N 50°58' E 001°51'0 0.0
2017-Aug-22 20:31N 50°58' E 001°51'5 9.8
2017-Aug-22 20:00N 50°58' E 001°43'816.7
2017-Aug-22 19:30N 51°02' E 001°32'916.4
2017-Aug-22 18:58N 51°07' E 001°21'0 1.0
2017-Aug-22 18:30N 51°07' E 001°20'0 0.2
2017-Aug-22 18:01N 51°07' E 001°20'714.7
2017-Aug-22 17:31N 51°05' E 001°31'918.8
2017-Aug-22 17:01N 50°59' E 001°43'510.2
2017-Aug-22 16:30N 50°58' E 001°51'0 0.0
2017-Aug-22 16:01N 50°58' E 001°51'3 5.4
2017-Aug-22 15:30N 50°58' E 001°47'714.7
2017-Aug-22 15:00N 50°59' E 001°35'918.4
2017-Aug-22 14:30N 51°05' E 001°24'3 5.9
2017-Aug-22 13:56N 51°07' E 001°20'0 0.2
2017-Aug-22 13:24N 51°07' E 001°20'512.4
2017-Aug-22 13:01N 51°06' E 001°28'1019.4
2017-Aug-22 12:31N 51°00' E 001°40'714.5
2017-Aug-22 12:01N 50°58' E 001°51'0 0.2
2017-Aug-22 11:30N 50°58' E 001°51'0 0.8
2017-Aug-22 11:01N 50°58' E 001°51'816.5
2017-Aug-22 10:30N 50°59' E 001°38'816.7
2017-Aug-22 10:00N 51°04' E 001°27'510.9
2017-Aug-22 09:30N 51°07' E 001°20'0 0.1
2017-Aug-22 08:45N 51°07' E 001°20'312.5
2017-Aug-22 08:31N 51°07' E 001°25'919.0
2017-Aug-22 08:01N 51°01' E 001°37'918.1
2017-Aug-22 07:30N 50°58' E 001°51'0 0.6
2017-Aug-22 07:00N 50°58' E 001°51'0 0.0
2017-Aug-22 06:30N 50°58' E 001°51'3 6.8
2017-Aug-22 06:01N 50°58' E 001°46'815.2
2017-Aug-22 05:30N 51°01' E 001°35'816.7
2017-Aug-22 05:00N 51°06' E 001°24'3 5.6
2017-Aug-22 04:28N 51°07' E 001°20'0 0.0
2017-Aug-22 04:00N 51°07' E 001°20'3 5.6
2017-Aug-22 03:30N 51°07' E 001°25'815.6
2017-Aug-22 03:00N 51°03' E 001°35'817.0
2017-Aug-22 02:30N 50°58' E 001°46'3 6.1
2017-Aug-22 02:00N 50°58' E 001°51'0 0.0
2017-Aug-22 01:30N 50°58' E 001°51'3 5.5
2017-Aug-22 01:00N 50°58' E 001°47'815.8
2017-Aug-22 00:30N 51°00' E 001°35'815.5
2017-Aug-22 00:00N 51°05' E 001°25'4 7.9
2017-Aug-21 23:30N 51°07' E 001°20'0 0.0
2017-Aug-21 23:00N 51°07' E 001°20'1 2.5
2017-Aug-21 22:30N 51°07' E 001°22'917.9
2017-Aug-21 22:00N 51°03' E 001°35'917.5
2017-Aug-21 21:30N 50°58' E 001°46'3 6.2
2017-Aug-21 21:00N 50°58' E 001°51'0 0.0
2017-Aug-21 20:30N 50°58' E 001°51'714.6
2017-Aug-21 20:00N 50°58' E 001°40'1020.7
2017-Aug-21 19:30N 51°04' E 001°26'5 3.6
2017-Aug-21 18:08N 51°07' E 001°20'0 1.8
2017-Aug-21 17:56N 51°07' E 001°20'716.1
2017-Aug-21 17:31N 51°05' E 001°31'917.9
2017-Aug-21 17:00N 50°60' E 001°42'611.6
2017-Aug-21 16:30N 50°58' E 001°51'0 0.0
2017-Aug-21 16:00N 50°58' E 001°51'1 1.4
2017-Aug-21 15:30N 50°58' E 001°50'714.9
2017-Aug-21 15:00N 50°59' E 001°39'918.0
2017-Aug-21 14:31N 51°05' E 001°27'5 3.7
2017-Aug-21 13:11N 51°07' E 001°21'316.6
2017-Aug-21 13:00N 51°07' E 001°25'1020.6
2017-Aug-21 12:30N 51°01' E 001°39'816.4
2017-Aug-21 12:01N 50°58' E 001°51'0 0.3
2017-Aug-21 11:30N 50°58' E 001°51'0 0.5
2017-Aug-21 11:01N 50°58' E 001°51'815.8
2017-Aug-21 10:30N 50°60' E 001°39'816.4
2017-Aug-21 10:00N 51°04' E 001°28'5 4.0
2017-Aug-21 08:39N 51°07' E 001°21'216.3
2017-Aug-21 08:30N 51°07' E 001°24'917.5
2017-Aug-21 08:00N 51°02' E 001°36'917.6
2017-Aug-21 07:30N 50°58' E 001°49'2 3.4
2017-Aug-21 07:01N 50°58' E 001°51'0 0.0
2017-Aug-21 06:30N 50°58' E 001°51'3 6.6
2017-Aug-21 06:00N 50°58' E 001°46'815.2
2017-Aug-21 05:30N 51°00' E 001°35'917.1
2017-Aug-21 05:00N 51°05' E 001°24'3 6.1
2017-Aug-21 04:30N 51°07' E 001°20'0 0.0
2017-Aug-21 04:00N 51°07' E 001°20'3 6.1
2017-Aug-21 03:31N 51°07' E 001°25'918.5
2017-Aug-21 03:01N 51°02' E 001°38'816.4
2017-Aug-21 02:31N 50°58' E 001°49'1 2.4
2017-Aug-21 02:00N 50°58' E 001°51'0 0.0
2017-Aug-21 01:31N 50°58' E 001°51'1 1.2
2017-Aug-21 01:01N 50°58' E 001°50'816.4
2017-Aug-21 00:31N 50°60' E 001°38'816.4
2017-Aug-21 00:00N 51°05' E 001°27'5 8.0
2017-Aug-20 23:22N 51°07' E 001°20'0 0.0
2017-Aug-20 23:00N 51°07' E 001°20'2 4.0
2017-Aug-20 22:31N 51°07' E 001°23'917.5
2017-Aug-20 22:01N 51°04' E 001°36'917.4
2017-Aug-20 21:31N 50°58' E 001°47'3 5.4
2017-Aug-20 21:00N 50°58' E 001°51'0 0.0
2017-Aug-20 20:30N 50°58' E 001°51'3 6.1
2017-Aug-20 20:00N 50°58' E 001°46'816.7
2017-Aug-20 19:30N 51°01' E 001°34'917.4
2017-Aug-20 19:00N 51°06' E 001°23'2 4.3
2017-Aug-20 18:29N 51°07' E 001°20'0 0.0
2017-Aug-20 18:00N 51°07' E 001°20'714.5
2017-Aug-20 17:30N 51°04' E 001°31'1121.2
2017-Aug-20 17:00N 50°58' E 001°45'4 8.3
2017-Aug-20 16:30N 50°58' E 001°51'0 0.0
2017-Aug-20 16:01N 50°58' E 001°51'1 2.1
2017-Aug-20 15:30N 50°58' E 001°50'815.7
2017-Aug-20 15:01N 51°00' E 001°38'918.1
2017-Aug-20 14:30N 51°05' E 001°25'4 7.9
2017-Aug-20 14:00N 51°07' E 001°20'0 0.0
2017-Aug-20 13:27N 51°07' E 001°20'4 8.2
2017-Aug-20 13:00N 51°07' E 001°26'1020.0
2017-Aug-20 12:31N 51°00' E 001°38'917.1
2017-Aug-20 12:01N 50°58' E 001°51'0 0.3
2017-Aug-20 11:30N 50°58' E 001°51'0 0.3
2017-Aug-20 11:01N 50°58' E 001°51'815.7
2017-Aug-20 10:30N 50°59' E 001°39'815.8
2017-Aug-20 10:00N 51°03' E 001°28'6 5.1
2017-Aug-20 08:46N 51°07' E 001°20'2 9.3
2017-Aug-20 08:31N 51°07' E 001°24'918.5
2017-Aug-20 08:01N 51°01' E 001°36'918.2
2017-Aug-20 07:30N 50°58' E 001°49'2 2.7
2017-Aug-20 06:56N 50°58' E 001°52'0 0.0
2017-Aug-20 06:28N 50°58' E 001°52'0 0.0
2017-Aug-20 06:00N 50°58' E 001°52'0 0.0
2017-Aug-20 05:30N 50°58' E 001°52'0 0.0
2017-Aug-20 04:57N 50°58' E 001°52'0 0.0
2017-Aug-20 04:28N 50°58' E 001°52'0 0.0
2017-Aug-20 04:01N 50°58' E 001°52'0 0.0
2017-Aug-20 03:30N 50°58' E 001°52'0 0.0
2017-Aug-20 03:00N 50°58' E 001°52'0 0.0
2017-Aug-20 02:31N 50°58' E 001°52'0 0.0
2017-Aug-20 02:00N 50°58' E 001°52'0 0.0
2017-Aug-20 01:30N 50°58' E 001°52'1 2.9
2017-Aug-20 01:01N 50°58' E 001°49'816.1
2017-Aug-20 00:30N 50°60' E 001°37'917.4
2017-Aug-20 00:01N 51°05' E 001°26'4 8.7
2017-Aug-19 23:30N 51°07' E 001°20'0 0.6
2017-Aug-19 23:00N 51°07' E 001°20'510.3
2017-Aug-19 22:31N 51°06' E 001°28'1020.3
2017-Aug-19 22:00N 51°00' E 001°41'713.2
2017-Aug-19 21:30N 50°58' E 001°51'0 0.0
2017-Aug-19 21:00N 50°58' E 001°51'0 0.0
2017-Aug-19 20:31N 50°58' E 001°51'3 6.5
2017-Aug-19 20:00N 50°58' E 001°46'816.8
2017-Aug-19 19:31N 51°01' E 001°34'816.4
2017-Aug-19 19:00N 51°06' E 001°23'3 5.0
2017-Aug-19 18:30N 51°07' E 001°20'0 0.2
2017-Aug-19 17:59N 51°07' E 001°20'511.1
2017-Aug-19 17:30N 51°05' E 001°28'917.7
2017-Aug-19 17:00N 51°00' E 001°40'815.1
2017-Aug-19 16:30N 50°58' E 001°51'0 0.0
2017-Aug-19 16:00N 50°58' E 001°51'1 1.4
2017-Aug-19 15:30N 50°58' E 001°50'714.9
2017-Aug-19 15:00N 50°59' E 001°38'1514.2
2017-Aug-19 13:59N 51°07' E 001°20'0 0.0
2017-Aug-19 13:29N 51°07' E 001°20'3 7.2
2017-Aug-19 13:01N 51°07' E 001°25'1020.3
2017-Aug-19 12:31N 51°01' E 001°39'816.4
2017-Aug-19 12:00N 50°58' E 001°51'0 0.1
2017-Aug-19 11:30N 50°58' E 001°51'0 0.5
2017-Aug-19 11:00N 50°58' E 001°51'917.1
2017-Aug-19 10:30N 50°60' E 001°38'918.2
2017-Aug-19 10:00N 51°05' E 001°26'4 8.3
2017-Aug-19 09:29N 51°07' E 001°20'0 0.0
2017-Aug-19 09:00N 51°07' E 001°20'2 4.9
2017-Aug-19 08:31N 51°07' E 001°24'918.5
2017-Aug-19 08:00N 51°02' E 001°36'917.2
2017-Aug-19 07:30N 50°58' E 001°49'2 3.1
2017-Aug-19 07:00N 50°58' E 001°51'0 0.0
2017-Aug-19 06:30N 50°58' E 001°51'2 4.9
2017-Aug-19 06:01N 50°58' E 001°47'816.4
2017-Aug-19 05:30N 50°60' E 001°35'917.4
2017-Aug-19 05:01N 51°05' E 001°24'3 6.4
2017-Aug-19 04:30N 51°07' E 001°20'0 0.0
2017-Aug-19 04:00N 51°07' E 001°20'3 6.0
2017-Aug-19 03:30N 51°07' E 001°25'918.1
2017-Aug-19 03:00N 51°02' E 001°37'817.0
2017-Aug-19 02:30N 50°58' E 001°49'1 2.8
2017-Aug-19 02:00N 50°58' E 001°51'0 0.0
2017-Aug-19 01:30N 50°58' E 001°51'2 4.3
2017-Aug-19 01:01N 50°58' E 001°48'714.0
2017-Aug-19 00:31N 50°60' E 001°37'815.8
2017-Aug-19 00:01N 51°04' E 001°27'510.5
2017-Aug-18 23:30N 51°07' E 001°20'0 0.0
2017-Aug-18 23:00N 51°07' E 001°20'1 1.8
2017-Aug-18 22:30N 51°07' E 001°22'917.3
2017-Aug-18 22:00N 51°04' E 001°34'918.3
2017-Aug-18 21:31N 50°58' E 001°45'4 7.2
2017-Aug-18 21:00N 50°58' E 001°51'0 0.0
2017-Aug-18 20:30N 50°58' E 001°51'3 6.6
2017-Aug-18 20:00N 50°58' E 001°46'917.3
2017-Aug-18 19:30N 51°01' E 001°33'917.6
2017-Aug-18 19:01N 51°07' E 001°22'2 2.3
2017-Aug-18 18:18N 51°07' E 001°20'0 0.7
2017-Aug-18 18:00N 51°07' E 001°20'815.6
2017-Aug-18 17:30N 51°04' E 001°32'917.7
2017-Aug-18 17:00N 50°59' E 001°43'510.5
2017-Aug-18 16:30N 50°58' E 001°51'0 0.0
2017-Aug-18 16:00N 50°58' E 001°51'4 7.2
2017-Aug-18 15:30N 50°58' E 001°46'917.8
2017-Aug-18 15:01N 51°02' E 001°33'1017.5
2017-Aug-18 14:27N 51°07' E 001°20'0 0.0
2017-Aug-18 13:30N 51°07' E 001°20'2 4.6
2017-Aug-18 13:01N 51°07' E 001°24'1020.5
2017-Aug-18 12:31N 51°01' E 001°37'918.2
2017-Aug-18 12:00N 50°58' E 001°51'0 0.5
2017-Aug-18 11:30N 50°58' E 001°51'0 0.9
2017-Aug-18 11:00N 50°58' E 001°51'815.6
2017-Aug-18 10:30N 50°59' E 001°38'816.4
2017-Aug-18 10:00N 51°04' E 001°28'6 7.9
2017-Aug-18 09:15N 51°07' E 001°20'0 0.2
2017-Aug-18 08:44N 51°07' E 001°20'315.8
2017-Aug-18 08:30N 51°07' E 001°26'918.1
2017-Aug-18 08:00N 51°01' E 001°37'816.6
2017-Aug-18 07:30N 50°58' E 001°50'1 2.2
2017-Aug-18 07:00N 50°58' E 001°51'0 0.0
2017-Aug-18 06:30N 50°58' E 001°51'2 3.6
2017-Aug-18 06:01N 50°58' E 001°48'917.5
2017-Aug-18 05:30N 51°01' E 001°35'917.5
2017-Aug-18 05:00N 51°06' E 001°24'3 5.2
2017-Aug-18 04:30N 51°07' E 001°20'0 0.0
2017-Aug-18 04:00N 51°07' E 001°20'3 6.6
2017-Aug-18 03:30N 51°07' E 001°25'816.9
2017-Aug-18 03:00N 51°02' E 001°37'816.6
2017-Aug-18 02:31N 50°58' E 001°48'2 4.0
2017-Aug-18 02:00N 50°58' E 001°51'0 0.0
2017-Aug-18 01:30N 50°58' E 001°51'3 6.2
2017-Aug-18 01:00N 50°58' E 001°46'714.2
2017-Aug-18 00:30N 50°59' E 001°35'816.9
2017-Aug-18 00:01N 51°04' E 001°25'4 8.2
2017-Aug-17 23:30N 51°07' E 001°20'0 0.0
2017-Aug-17 22:59N 51°07' E 001°20'2 3.7
2017-Aug-17 22:30N 51°07' E 001°23'917.9
2017-Aug-17 22:00N 51°04' E 001°36'917.4
2017-Aug-17 21:30N 50°58' E 001°46'3 5.9
2017-Aug-17 21:00N 50°58' E 001°51'0 0.0
2017-Aug-17 20:30N 50°58' E 001°51'510.2
2017-Aug-17 20:00N 50°58' E 001°43'917.1
2017-Aug-17 19:30N 51°02' E 001°32'912.8
2017-Aug-17 18:49N 51°07' E 001°20'0 0.2
2017-Aug-17 18:18N 51°07' E 001°20'2 6.7
2017-Aug-17 18:00N 51°07' E 001°23'713.8
2017-Aug-17 17:30N 51°04' E 001°33'815.8
2017-Aug-17 17:00N 50°59' E 001°43'510.6
2017-Aug-17 16:30N 50°58' E 001°51'0 0.0
2017-Aug-17 16:00N 50°58' E 001°51'5 9.2
2017-Aug-17 15:31N 50°58' E 001°44'816.5
2017-Aug-17 15:00N 51°00' E 001°31'917.6
2017-Aug-17 14:30N 51°07' E 001°22'1 2.1
2017-Aug-17 13:59N 51°07' E 001°20'0 0.1
2017-Aug-17 13:28N 51°07' E 001°20'4 9.7
2017-Aug-17 13:00N 51°06' E 001°26'1121.1
2017-Aug-17 12:30N 50°60' E 001°41'713.9
2017-Aug-17 12:00N 50°58' E 001°51'0 0.0
2017-Aug-17 11:30N 50°58' E 001°51'0 0.8
2017-Aug-17 11:00N 50°58' E 001°51'816.1
2017-Aug-17 10:31N 50°58' E 001°38'918.0
2017-Aug-17 10:00N 51°04' E 001°26'510.7
2017-Aug-17 09:30N 51°07' E 001°20'0 0.0
2017-Aug-17 08:57N 51°07' E 001°20'3 5.7
2017-Aug-17 08:30N 51°07' E 001°24'917.5
2017-Aug-17 08:00N 51°03' E 001°36'917.7
2017-Aug-17 07:30N 50°58' E 001°49'2 3.4
2017-Aug-17 07:00N 50°58' E 001°51'0 0.0
2017-Aug-17 06:30N 50°58' E 001°51'3 5.4
2017-Aug-17 06:00N 50°58' E 001°47'917.3
2017-Aug-17 05:31N 51°00' E 001°34'816.5
2017-Aug-17 05:00N 51°06' E 001°24'3 5.6
2017-Aug-17 04:29N 51°07' E 001°20'0 0.0
2017-Aug-17 04:00N 51°07' E 001°20'2 3.2
2017-Aug-17 03:31N 51°07' E 001°23'917.6
2017-Aug-17 03:01N 51°03' E 001°35'917.4
2017-Aug-17 02:30N 50°58' E 001°46'3 6.2
2017-Aug-17 02:00N 50°58' E 001°51'0 0.0
2017-Aug-17 01:30N 50°58' E 001°51'3 6.0
2017-Aug-17 01:00N 50°58' E 001°46'713.8
2017-Aug-17 00:30N 50°59' E 001°36'816.2
2017-Aug-17 00:00N 51°04' E 001°26'5 9.6
2017-Aug-16 23:30N 51°07' E 001°20'0 0.0
2017-Aug-16 23:00N 51°07' E 001°20'2 3.9
2017-Aug-16 22:30N 51°07' E 001°23'918.0
2017-Aug-16 22:00N 51°04' E 001°37'917.6
2017-Aug-16 21:30N 50°58' E 001°47'3 5.5
2017-Aug-16 21:00N 50°58' E 001°51'0 0.0
2017-Aug-16 20:30N 50°58' E 001°51'4 7.4
2017-Aug-16 20:00N 50°58' E 001°45'816.3
2017-Aug-16 19:30N 51°02' E 001°34'816.8
2017-Aug-16 19:00N 51°06' E 001°23'2 3.8
2017-Aug-16 18:29N 51°07' E 001°20'0 0.2
2017-Aug-16 18:00N 51°07' E 001°20'713.2
2017-Aug-16 17:31N 51°05' E 001°30'918.3
2017-Aug-16 17:01N 50°60' E 001°42'612.2
2017-Aug-16 16:30N 50°58' E 001°51'0 0.0
2017-Aug-16 16:00N 50°58' E 001°51'2 3.3
2017-Aug-16 15:30N 50°58' E 001°49'815.7
2017-Aug-16 15:00N 50°58' E 001°36'918.5
2017-Aug-16 14:30N 51°04' E 001°25'4 8.6
2017-Aug-16 13:59N 51°07' E 001°20'0 0.0
2017-Aug-16 13:29N 51°07' E 001°20'3 7.3
2017-Aug-16 13:00N 51°06' E 001°25'1020.8
2017-Aug-16 12:30N 51°00' E 001°39'815.9
2017-Aug-16 12:00N 50°58' E 001°51'0 0.1
2017-Aug-16 11:30N 50°58' E 001°51'1 1.8
2017-Aug-16 11:00N 50°58' E 001°50'815.1
2017-Aug-16 10:30N 50°59' E 001°38'917.5
2017-Aug-16 10:00N 51°04' E 001°27'510.1
2017-Aug-16 09:30N 51°07' E 001°20'0 0.0
2017-Aug-16 09:00N 51°07' E 001°20'4 7.6
2017-Aug-16 08:30N 51°07' E 001°26'917.7
2017-Aug-16 08:00N 51°01' E 001°37'816.8
2017-Aug-16 07:30N 50°58' E 001°50'1 2.2
2017-Aug-16 07:00N 50°58' E 001°51'0 0.0
2017-Aug-16 06:30N 50°58' E 001°51'2 4.9
2017-Aug-16 06:00N 50°58' E 001°47'917.4
2017-Aug-16 05:30N 51°01' E 001°35'917.3
2017-Aug-16 05:00N 51°06' E 001°23'2 4.7
2017-Aug-16 04:31N 51°07' E 001°20'0 0.0
2017-Aug-16 04:01N 51°07' E 001°20'3 5.6
2017-Aug-16 03:30N 51°07' E 001°25'816.1
2017-Aug-16 03:00N 51°02' E 001°35'816.6
2017-Aug-16 02:30N 50°58' E 001°47'3 5.8
2017-Aug-16 02:00N 50°58' E 001°51'0 0.0
2017-Aug-16 01:30N 50°58' E 001°51'2 4.5
2017-Aug-16 01:00N 50°58' E 001°48'714.4
2017-Aug-16 00:30N 51°00' E 001°37'816.4
2017-Aug-16 00:00N 51°05' E 001°26'5 9.0
2017-Aug-15 23:30N 51°07' E 001°20'0 0.0
2017-Aug-15 23:00N 51°07' E 001°20'1 1.8
2017-Aug-15 22:30N 51°07' E 001°22'918.4
2017-Aug-15 22:00N 51°03' E 001°34'918.5
2017-Aug-15 21:30N 50°58' E 001°47'3 5.3
2017-Aug-15 21:00N 50°58' E 001°51'0 0.0
2017-Aug-15 20:30N 50°58' E 001°51'3 6.5
2017-Aug-15 20:01N 50°58' E 001°46'816.6
2017-Aug-15 19:31N 51°01' E 001°34'917.4
2017-Aug-15 19:00N 51°06' E 001°23'2 4.3
2017-Aug-15 18:30N 51°07' E 001°20'0 0.0
2017-Aug-15 18:00N 51°07' E 001°20'5 9.9
2017-Aug-15 17:30N 51°06' E 001°28'918.8
2017-Aug-15 17:00N 51°01' E 001°40'714.7
2017-Aug-15 16:30N 50°58' E 001°51'0 0.4
2017-Aug-15 16:00N 50°58' E 001°51'1 1.8
2017-Aug-15 15:30N 50°58' E 001°50'918.5
2017-Aug-15 15:01N 51°00' E 001°35'918.8
2017-Aug-15 14:31N 51°06' E 001°24'3 5.4
2017-Aug-15 14:00N 51°07' E 001°20'0 0.0
2017-Aug-15 13:30N 51°07' E 001°20'3 6.7
2017-Aug-15 13:00N 51°06' E 001°25'1020.0
2017-Aug-15 12:30N 50°60' E 001°37'918.0
2017-Aug-15 12:00N 50°58' E 001°51'0 0.3
2017-Aug-15 11:30N 50°58' E 001°51'1 1.1
2017-Aug-15 11:01N 50°58' E 001°50'814.9
2017-Aug-15 10:30N 50°58' E 001°38'917.4
2017-Aug-15 10:01N 51°04' E 001°28'6 8.0
2017-Aug-15 09:15N 51°07' E 001°20'0 0.0
2017-Aug-15 08:57N 51°07' E 001°20'3 6.0
2017-Aug-15 08:30N 51°07' E 001°24'917.2
2017-Aug-15 08:00N 51°02' E 001°36'917.2
2017-Aug-15 07:31N 50°58' E 001°48'2 4.0
2017-Aug-15 07:01N 50°58' E 001°51'0 0.0
2017-Aug-15 06:30N 50°58' E 001°51'1 2.2
2017-Aug-15 06:00N 50°58' E 001°49'917.1
2017-Aug-15 05:31N 51°00' E 001°36'917.4
2017-Aug-15 05:01N 51°05' E 001°25'4 6.8
2017-Aug-15 04:28N 51°07' E 001°20'0 0.0
2017-Aug-15 04:00N 51°07' E 001°20'4 7.1
2017-Aug-15 03:30N 51°07' E 001°26'917.5
2017-Aug-15 03:00N 51°02' E 001°37'816.2
2017-Aug-15 02:30N 50°58' E 001°49'2 3.3
2017-Aug-15 02:01N 50°58' E 001°51'0 0.0
2017-Aug-15 01:31N 50°58' E 001°51'2 4.6
2017-Aug-15 01:01N 50°58' E 001°48'816.4
2017-Aug-15 00:31N 50°59' E 001°35'917.5
2017-Aug-15 00:01N 51°05' E 001°24'4 7.1
2017-Aug-14 23:30N 51°07' E 001°20'0 0.0
2017-Aug-14 23:00N 51°07' E 001°20'2 3.2
2017-Aug-14 22:31N 51°07' E 001°23'918.7
2017-Aug-14 22:01N 51°02' E 001°35'918.5
2017-Aug-14 21:31N 50°58' E 001°48'2 3.7
2017-Aug-14 21:00N 50°58' E 001°51'0 0.0
2017-Aug-14 20:30N 50°58' E 001°51'5 9.5
2017-Aug-14 20:00N 50°58' E 001°44'917.8
2017-Aug-14 19:30N 51°02' E 001°31'917.2
2017-Aug-14 19:01N 51°07' E 001°20'0 0.3
2017-Aug-14 18:30N 51°07' E 001°20'0 0.0
2017-Aug-14 18:00N 51°07' E 001°20'613.1
2017-Aug-14 17:31N 51°05' E 001°30'918.5
2017-Aug-14 17:01N 50°60' E 001°42'612.2
2017-Aug-14 16:30N 50°58' E 001°51'0 0.0
2017-Aug-14 16:00N 50°58' E 001°51'0 0.6
2017-Aug-14 15:30N 50°58' E 001°51'917.1
2017-Aug-14 15:00N 51°00' E 001°38'918.7
2017-Aug-14 14:30N 51°05' E 001°25'4 6.3
2017-Aug-14 13:55N 51°07' E 001°20'0 0.0
2017-Aug-14 13:29N 51°07' E 001°20'4 8.5
2017-Aug-14 13:01N 51°07' E 001°27'1019.4
2017-Aug-14 12:31N 51°01' E 001°39'816.1
2017-Aug-14 12:01N 50°58' E 001°51'0 0.2
2017-Aug-14 11:30N 50°58' E 001°51'0 1.0
2017-Aug-14 11:01N 50°58' E 001°51'815.1
2017-Aug-14 10:30N 50°59' E 001°39'917.8
2017-Aug-14 10:00N 51°04' E 001°27'510.7
2017-Aug-14 09:30N 51°07' E 001°20'0 0.0
2017-Aug-14 08:59N 51°07' E 001°20'4 8.3
2017-Aug-14 08:30N 51°07' E 001°26'917.5
2017-Aug-14 08:00N 51°01' E 001°37'816.8
2017-Aug-14 07:30N 50°58' E 001°50'1 2.1
2017-Aug-14 07:00N 50°58' E 001°51'0 0.0
2017-Aug-14 06:30N 50°58' E 001°51'3 5.7
2017-Aug-14 06:01N 50°58' E 001°47'917.4
2017-Aug-14 05:30N 51°01' E 001°34'918.6
2017-Aug-14 05:00N 51°07' E 001°22'1 2.6
2017-Aug-14 04:30N 51°07' E 001°20'0 0.0
2017-Aug-14 04:00N 51°07' E 001°20'2 4.5
2017-Aug-14 03:31N 51°07' E 001°24'917.4
2017-Aug-14 03:01N 51°03' E 001°36'816.6
2017-Aug-14 02:31N 50°58' E 001°47'3 5.2
2017-Aug-14 02:00N 50°58' E 001°51'0 0.0
2017-Aug-14 01:31N 50°58' E 001°51'0 0.0
2017-Aug-14 01:01N 50°58' E 001°51'0 0.0
2017-Aug-14 00:30N 50°58' E 001°51'0 0.0
2017-Aug-14 00:00N 50°58' E 001°51'0 0.5
2017-Aug-13 23:30N 50°58' E 001°51'815.5
2017-Aug-13 23:00N 50°58' E 001°38'714.9
2017-Aug-13 22:30N 51°03' E 001°29'714.6
2017-Aug-13 22:00N 51°07' E 001°20'0 0.0
2017-Aug-13 21:30N 51°07' E 001°20'2 3.1
2017-Aug-13 21:00N 51°07' E 001°23'815.5
2017-Aug-13 20:31N 51°04' E 001°34'917.5
2017-Aug-13 20:01N 50°58' E 001°44'4 8.6
2017-Aug-13 19:31N 50°58' E 001°51'0 0.0
2017-Aug-13 19:00N 50°58' E 001°51'2 3.2
2017-Aug-13 18:30N 50°58' E 001°49'816.0
2017-Aug-13 18:00N 50°60' E 001°36'918.8
2017-Aug-13 17:30N 51°06' E 001°25'3 6.5
2017-Aug-13 16:59N 51°07' E 001°20'0 0.3
2017-Aug-13 16:29N 51°07' E 001°20'713.8
2017-Aug-13 16:00N 51°05' E 001°30'1019.3
2017-Aug-13 15:30N 50°59' E 001°42'611.3
2017-Aug-13 15:00N 50°58' E 001°51'0 0.0
2017-Aug-13 14:30N 50°58' E 001°51'2 3.2
2017-Aug-13 14:00N 50°58' E 001°49'917.2
2017-Aug-13 13:30N 50°59' E 001°35'  
Track history (hours):
 
Tides and Currents Weather Stations Pressure Air Temp Water Temp Dewpoint Dewpoint Depression Visibility Wind Speed Wind Dir Waves Ship Positions

Seafrance Rodin

Operator: SeaFrance

Last reported at 2017-Aug-23 13:30 UTC. Time now 2017-Aug-23 13:36 UTC.
Position N 51°07' E 001°20'.

Length 185 m; draft 6 m.

MMSI: 227022800.

Date/timePositionNaut miles runAvg speedWind from/ knotsBaromVisibWave heightAir tempDewpointWater temp
2017-Aug-23 13:30N 51°07' E 001°20'613.0
2017-Aug-23 13:00N 51°06' E 001°30'918.9
2017-Aug-23 12:31N 50°60' E 001°41'713.0
2017-Aug-23 12:00N 50°58' E 001°51'0 0.0
2017-Aug-23 11:30N 50°58' E 001°51'1 1.3
2017-Aug-23 11:00N 50°58' E 001°50'714.8
2017-Aug-23 10:31N 51°00' E 001°39'918.7
2017-Aug-23 10:00N 51°04' E 001°26'5 8.3
2017-Aug-23 09:26N 51°07' E 001°20'0 0.0
2017-Aug-23 08:53N 51°07' E 001°20'3 9.2
2017-Aug-23 08:30N 51°06' E 001°25'917.4
2017-Aug-23 08:00N 51°01' E 001°37'917.2
2017-Aug-23 07:30N 50°58' E 001°49'1 2.3
2017-Aug-23 07:00N 50°58' E 001°51'0 0.0
2017-Aug-23 06:30N 50°58' E 001°51'2 4.4
2017-Aug-23 06:00N 50°58' E 001°48'815.5
2017-Aug-23 05:30N 51°00' E 001°36'918.0
2017-Aug-23 05:00N 51°05' E 001°24'3 6.2
2017-Aug-23 04:29N 51°07' E 001°20'0 0.0
2017-Aug-23 03:59N 51°07' E 001°20'3 6.1
2017-Aug-23 03:31N 51°07' E 001°25'917.9
2017-Aug-23 03:01N 51°02' E 001°37'917.4
2017-Aug-23 02:31N 50°58' E 001°49'1 2.3
2017-Aug-23 02:00N 50°58' E 001°51'0 0.0
2017-Aug-23 01:30N 50°58' E 001°51'2 3.9
2017-Aug-23 01:01N 50°58' E 001°48'917.0
2017-Aug-23 00:30N 50°60' E 001°35'816.1
2017-Aug-23 00:00N 51°05' E 001°25'4 8.0
2017-Aug-22 23:30N 51°07' E 001°20'0 0.0
2017-Aug-22 23:00N 51°07' E 001°20'4 7.6
2017-Aug-22 22:30N 51°07' E 001°26'816.9
2017-Aug-22 22:00N 51°02' E 001°37'815.8
2017-Aug-22 21:30N 50°58' E 001°48'2 3.9
2017-Aug-22 21:00N 50°58' E 001°51'0 0.0
2017-Aug-22 20:31N 50°58' E 001°51'5 9.8
2017-Aug-22 20:00N 50°58' E 001°43'816.7
2017-Aug-22 19:30N 51°02' E 001°32'916.4
2017-Aug-22 18:58N 51°07' E 001°21'0 1.0
2017-Aug-22 18:30N 51°07' E 001°20'0 0.2
2017-Aug-22 18:01N 51°07' E 001°20'714.7
2017-Aug-22 17:31N 51°05' E 001°31'918.8
2017-Aug-22 17:01N 50°59' E 001°43'510.2
2017-Aug-22 16:30N 50°58' E 001°51'0 0.0
2017-Aug-22 16:01N 50°58' E 001°51'3 5.4
2017-Aug-22 15:30N 50°58' E 001°47'714.7
2017-Aug-22 15:00N 50°59' E 001°35'918.4
2017-Aug-22 14:30N 51°05' E 001°24'3 5.9
2017-Aug-22 13:56N 51°07' E 001°20'0 0.2
2017-Aug-22 13:24N 51°07' E 001°20'512.4
2017-Aug-22 13:01N 51°06' E 001°28'1019.4
2017-Aug-22 12:31N 51°00' E 001°40'714.5
2017-Aug-22 12:01N 50°58' E 001°51'0 0.2
2017-Aug-22 11:30N 50°58' E 001°51'0 0.8
2017-Aug-22 11:01N 50°58' E 001°51'816.5
2017-Aug-22 10:30N 50°59' E 001°38'816.7
2017-Aug-22 10:00N 51°04' E 001°27'510.9
2017-Aug-22 09:30N 51°07' E 001°20'0 0.1
2017-Aug-22 08:45N 51°07' E 001°20'312.5
2017-Aug-22 08:31N 51°07' E 001°25'919.0
2017-Aug-22 08:01N 51°01' E 001°37'918.1
2017-Aug-22 07:30N 50°58' E 001°51'0 0.6
2017-Aug-22 07:00N 50°58' E 001°51'0 0.0
2017-Aug-22 06:30N 50°58' E 001°51'3 6.8
2017-Aug-22 06:01N 50°58' E 001°46'815.2
2017-Aug-22 05:30N 51°01' E 001°35'816.7
2017-Aug-22 05:00N 51°06' E 001°24'3 5.6
2017-Aug-22 04:28N 51°07' E 001°20'0 0.0
2017-Aug-22 04:00N 51°07' E 001°20'3 5.6
2017-Aug-22 03:30N 51°07' E 001°25'815.6
2017-Aug-22 03:00N 51°03' E 001°35'817.0
2017-Aug-22 02:30N 50°58' E 001°46'3 6.1
2017-Aug-22 02:00N 50°58' E 001°51'0 0.0
2017-Aug-22 01:30N 50°58' E 001°51'3 5.5
2017-Aug-22 01:00N 50°58' E 001°47'815.8
2017-Aug-22 00:30N 51°00' E 001°35'815.5
2017-Aug-22 00:00N 51°05' E 001°25'4 7.9
2017-Aug-21 23:30N 51°07' E 001°20'0 0.0
2017-Aug-21 23:00N 51°07' E 001°20'1 2.5
2017-Aug-21 22:30N 51°07' E 001°22'917.9
2017-Aug-21 22:00N 51°03' E 001°35'917.5
2017-Aug-21 21:30N 50°58' E 001°46'3 6.2
2017-Aug-21 21:00N 50°58' E 001°51'0 0.0
2017-Aug-21 20:30N 50°58' E 001°51'714.6
2017-Aug-21 20:00N 50°58' E 001°40'1020.7
2017-Aug-21 19:30N 51°04' E 001°26'5 3.6
2017-Aug-21 18:08N 51°07' E 001°20'0 1.8
2017-Aug-21 17:56N 51°07' E 001°20'716.1
2017-Aug-21 17:31N 51°05' E 001°31'917.9
2017-Aug-21 17:00N 50°60' E 001°42'611.6
2017-Aug-21 16:30N 50°58' E 001°51'0 0.0
2017-Aug-21 16:00N 50°58' E 001°51'1 1.4
2017-Aug-21 15:30N 50°58' E 001°50'714.9
2017-Aug-21 15:00N 50°59' E 001°39'918.0
2017-Aug-21 14:31N 51°05' E 001°27'5 3.7
2017-Aug-21 13:11N 51°07' E 001°21'316.6
2017-Aug-21 13:00N 51°07' E 001°25'1020.6
2017-Aug-21 12:30N 51°01' E 001°39'816.4
2017-Aug-21 12:01N 50°58' E 001°51'0 0.3
2017-Aug-21 11:30N 50°58' E 001°51'0 0.5
2017-Aug-21 11:01N 50°58' E 001°51'815.8
2017-Aug-21 10:30N 50°60' E 001°39'816.4
2017-Aug-21 10:00N 51°04' E 001°28'5 4.0
2017-Aug-21 08:39N 51°07' E 001°21'216.3
2017-Aug-21 08:30N 51°07' E 001°24'917.5
2017-Aug-21 08:00N 51°02' E 001°36'917.6
2017-Aug-21 07:30N 50°58' E 001°49'2 3.4
2017-Aug-21 07:01N 50°58' E 001°51'0 0.0
2017-Aug-21 06:30N 50°58' E 001°51'3 6.6
2017-Aug-21 06:00N 50°58' E 001°46'815.2
2017-Aug-21 05:30N 51°00' E 001°35'917.1
2017-Aug-21 05:00N 51°05' E 001°24'3 6.1
2017-Aug-21 04:30N 51°07' E 001°20'0 0.0
2017-Aug-21 04:00N 51°07' E 001°20'3 6.1
2017-Aug-21 03:31N 51°07' E 001°25'918.5
2017-Aug-21 03:01N 51°02' E 001°38'816.4
2017-Aug-21 02:31N 50°58' E 001°49'1 2.4
2017-Aug-21 02:00N 50°58' E 001°51'0 0.0
2017-Aug-21 01:31N 50°58' E 001°51'1 1.2
2017-Aug-21 01:01N 50°58' E 001°50'816.4
2017-Aug-21 00:31N 50°60' E 001°38'816.4
2017-Aug-21 00:00N 51°05' E 001°27'5 8.0
2017-Aug-20 23:22N 51°07' E 001°20'0 0.0
2017-Aug-20 23:00N 51°07' E 001°20'2 4.0
2017-Aug-20 22:31N 51°07' E 001°23'917.5
2017-Aug-20 22:01N 51°04' E 001°36'917.4
2017-Aug-20 21:31N 50°58' E 001°47'3 5.4
2017-Aug-20 21:00N 50°58' E 001°51'0 0.0
2017-Aug-20 20:30N 50°58' E 001°51'3 6.1
2017-Aug-20 20:00N 50°58' E 001°46'816.7
2017-Aug-20 19:30N 51°01' E 001°34'917.4
2017-Aug-20 19:00N 51°06' E 001°23'2 4.3
2017-Aug-20 18:29N 51°07' E 001°20'0 0.0
2017-Aug-20 18:00N 51°07' E 001°20'714.5
2017-Aug-20 17:30N 51°04' E 001°31'1121.2
2017-Aug-20 17:00N 50°58' E 001°45'4 8.3
2017-Aug-20 16:30N 50°58' E 001°51'0 0.0
2017-Aug-20 16:01N 50°58' E 001°51'1 2.1
2017-Aug-20 15:30N 50°58' E 001°50'815.7
2017-Aug-20 15:01N 51°00' E 001°38'918.1
2017-Aug-20 14:30N 51°05' E 001°25'4 7.9
2017-Aug-20 14:00N 51°07' E 001°20'0 0.0
2017-Aug-20 13:27N 51°07' E 001°20'4 8.2
2017-Aug-20 13:00N 51°07' E 001°26'1020.0
2017-Aug-20 12:31N 51°00' E 001°38'917.1
2017-Aug-20 12:01N 50°58' E 001°51'0 0.3
2017-Aug-20 11:30N 50°58' E 001°51'0 0.3
2017-Aug-20 11:01N 50°58' E 001°51'815.7
2017-Aug-20 10:30N 50°59' E 001°39'815.8
2017-Aug-20 10:00N 51°03' E 001°28'6 5.1
2017-Aug-20 08:46N 51°07' E 001°20'2 9.3
2017-Aug-20 08:31N 51°07' E 001°24'918.5
2017-Aug-20 08:01N 51°01' E 001°36'918.2
2017-Aug-20 07:30N 50°58' E 001°49'2 2.7
2017-Aug-20 06:56N 50°58' E 001°52'0 0.0
2017-Aug-20 06:28N 50°58' E 001°52'0 0.0
2017-Aug-20 06:00N 50°58' E 001°52'0 0.0
2017-Aug-20 05:30N 50°58' E 001°52'0 0.0
2017-Aug-20 04:57N 50°58' E 001°52'0 0.0
2017-Aug-20 04:28N 50°58' E 001°52'0 0.0
2017-Aug-20 04:01N 50°58' E 001°52'0 0.0
2017-Aug-20 03:30N 50°58' E 001°52'0 0.0
2017-Aug-20 03:00N 50°58' E 001°52'0 0.0
2017-Aug-20 02:31N 50°58' E 001°52'0 0.0
2017-Aug-20 02:00N 50°58' E 001°52'0 0.0
2017-Aug-20 01:30N 50°58' E 001°52'1 2.9
2017-Aug-20 01:01N 50°58' E 001°49'816.1
2017-Aug-20 00:30N 50°60' E 001°37'917.4
2017-Aug-20 00:01N 51°05' E 001°26'4 8.7
2017-Aug-19 23:30N 51°07' E 001°20'0 0.6
2017-Aug-19 23:00N 51°07' E 001°20'510.3
2017-Aug-19 22:31N 51°06' E 001°28'1020.3
2017-Aug-19 22:00N 51°00' E 001°41'713.2
2017-Aug-19 21:30N 50°58' E 001°51'0 0.0
2017-Aug-19 21:00N 50°58' E 001°51'0 0.0
2017-Aug-19 20:31N 50°58' E 001°51'3 6.5
2017-Aug-19 20:00N 50°58' E 001°46'816.8
2017-Aug-19 19:31N 51°01' E 001°34'816.4
2017-Aug-19 19:00N 51°06' E 001°23'3 5.0
2017-Aug-19 18:30N 51°07' E 001°20'0 0.2
2017-Aug-19 17:59N 51°07' E 001°20'511.1
2017-Aug-19 17:30N 51°05' E 001°28'917.7
2017-Aug-19 17:00N 51°00' E 001°40'815.1
2017-Aug-19 16:30N 50°58' E 001°51'0 0.0
2017-Aug-19 16:00N 50°58' E 001°51'1 1.4
2017-Aug-19 15:30N 50°58' E 001°50'714.9
2017-Aug-19 15:00N 50°59' E 001°38'1514.2
2017-Aug-19 13:59N 51°07' E 001°20'0 0.0
2017-Aug-19 13:29N 51°07' E 001°20'3 7.2
2017-Aug-19 13:01N 51°07' E 001°25'1020.3
2017-Aug-19 12:31N 51°01' E 001°39'816.4
2017-Aug-19 12:00N 50°58' E 001°51'0 0.1
2017-Aug-19 11:30N 50°58' E 001°51'0 0.5
2017-Aug-19 11:00N 50°58' E 001°51'917.1
2017-Aug-19 10:30N 50°60' E 001°38'918.2
2017-Aug-19 10:00N 51°05' E 001°26'4 8.3
2017-Aug-19 09:29N 51°07' E 001°20'0 0.0
2017-Aug-19 09:00N 51°07' E 001°20'2 4.9
2017-Aug-19 08:31N 51°07' E 001°24'918.5
2017-Aug-19 08:00N 51°02' E 001°36'917.2
2017-Aug-19 07:30N 50°58' E 001°49'2 3.1
2017-Aug-19 07:00N 50°58' E 001°51'0 0.0
2017-Aug-19 06:30N 50°58' E 001°51'2 4.9
2017-Aug-19 06:01N 50°58' E 001°47'816.4
2017-Aug-19 05:30N 50°60' E 001°35'917.4
2017-Aug-19 05:01N 51°05' E 001°24'3 6.4
2017-Aug-19 04:30N 51°07' E 001°20'0 0.0
2017-Aug-19 04:00N 51°07' E 001°20'3 6.0
2017-Aug-19 03:30N 51°07' E 001°25'918.1
2017-Aug-19 03:00N 51°02' E 001°37'817.0
2017-Aug-19 02:30N 50°58' E 001°49'1 2.8
2017-Aug-19 02:00N 50°58' E 001°51'0 0.0
2017-Aug-19 01:30N 50°58' E 001°51'2 4.3
2017-Aug-19 01:01N 50°58' E 001°48'714.0
2017-Aug-19 00:31N 50°60' E 001°37'815.8
2017-Aug-19 00:01N 51°04' E 001°27'510.5
2017-Aug-18 23:30N 51°07' E 001°20'0 0.0
2017-Aug-18 23:00N 51°07' E 001°20'1 1.8
2017-Aug-18 22:30N 51°07' E 001°22'917.3
2017-Aug-18 22:00N 51°04' E 001°34'918.3
2017-Aug-18 21:31N 50°58' E 001°45'4 7.2
2017-Aug-18 21:00N 50°58' E 001°51'0 0.0
2017-Aug-18 20:30N 50°58' E 001°51'3 6.6
2017-Aug-18 20:00N 50°58' E 001°46'917.3
2017-Aug-18 19:30N 51°01' E 001°33'917.6
2017-Aug-18 19:01N 51°07' E 001°22'2 2.3
2017-Aug-18 18:18N 51°07' E 001°20'0 0.7
2017-Aug-18 18:00N 51°07' E 001°20'815.6
2017-Aug-18 17:30N 51°04' E 001°32'917.7
2017-Aug-18 17:00N 50°59' E 001°43'510.5
2017-Aug-18 16:30N 50°58' E 001°51'0 0.0
2017-Aug-18 16:00N 50°58' E 001°51'4 7.2
2017-Aug-18 15:30N 50°58' E 001°46'917.8
2017-Aug-18 15:01N 51°02' E 001°33'1017.5
2017-Aug-18 14:27N 51°07' E 001°20'0 0.0
2017-Aug-18 13:30N 51°07' E 001°20'2 4.6
2017-Aug-18 13:01N 51°07' E 001°24'1020.5
2017-Aug-18 12:31N 51°01' E 001°37'918.2
2017-Aug-18 12:00N 50°58' E 001°51'0 0.5
2017-Aug-18 11:30N 50°58' E 001°51'0 0.9
2017-Aug-18 11:00N 50°58' E 001°51'815.6
2017-Aug-18 10:30N 50°59' E 001°38'816.4
2017-Aug-18 10:00N 51°04' E 001°28'6 7.9
2017-Aug-18 09:15N 51°07' E 001°20'0 0.2
2017-Aug-18 08:44N 51°07' E 001°20'315.8
2017-Aug-18 08:30N 51°07' E 001°26'918.1
2017-Aug-18 08:00N 51°01' E 001°37'816.6
2017-Aug-18 07:30N 50°58' E 001°50'1 2.2
2017-Aug-18 07:00N 50°58' E 001°51'0 0.0
2017-Aug-18 06:30N 50°58' E 001°51'2 3.6
2017-Aug-18 06:01N 50°58' E 001°48'917.5
2017-Aug-18 05:30N 51°01' E 001°35'917.5
2017-Aug-18 05:00N 51°06' E 001°24'3 5.2
2017-Aug-18 04:30N 51°07' E 001°20'0 0.0
2017-Aug-18 04:00N 51°07' E 001°20'3 6.6
2017-Aug-18 03:30N 51°07' E 001°25'816.9
2017-Aug-18 03:00N 51°02' E 001°37'816.6
2017-Aug-18 02:31N 50°58' E 001°48'2 4.0
2017-Aug-18 02:00N 50°58' E 001°51'0 0.0
2017-Aug-18 01:30N 50°58' E 001°51'3 6.2
2017-Aug-18 01:00N 50°58' E 001°46'714.2
2017-Aug-18 00:30N 50°59' E 001°35'816.9
2017-Aug-18 00:01N 51°04' E 001°25'4 8.2
2017-Aug-17 23:30N 51°07' E 001°20'0 0.0
2017-Aug-17 22:59N 51°07' E 001°20'2 3.7
2017-Aug-17 22:30N 51°07' E 001°23'917.9
2017-Aug-17 22:00N 51°04' E 001°36'917.4
2017-Aug-17 21:30N 50°58' E 001°46'3 5.9
2017-Aug-17 21:00N 50°58' E 001°51'0 0.0
2017-Aug-17 20:30N 50°58' E 001°51'510.2
2017-Aug-17 20:00N 50°58' E 001°43'917.1
2017-Aug-17 19:30N 51°02' E 001°32'912.8
2017-Aug-17 18:49N 51°07' E 001°20'0 0.2
2017-Aug-17 18:18N 51°07' E 001°20'2 6.7
2017-Aug-17 18:00N 51°07' E 001°23'713.8
2017-Aug-17 17:30N 51°04' E 001°33'815.8
2017-Aug-17 17:00N 50°59' E 001°43'510.6
2017-Aug-17 16:30N 50°58' E 001°51'0 0.0
2017-Aug-17 16:00N 50°58' E 001°51'5 9.2
2017-Aug-17 15:31N 50°58' E 001°44'816.5
2017-Aug-17 15:00N 51°00' E 001°31'917.6
2017-Aug-17 14:30N 51°07' E 001°22'1 2.1
2017-Aug-17 13:59N 51°07' E 001°20'0 0.1
2017-Aug-17 13:28N 51°07' E 001°20'4 9.7
2017-Aug-17 13:00N 51°06' E 001°26'1121.1
2017-Aug-17 12:30N 50°60' E 001°41'713.9
2017-Aug-17 12:00N 50°58' E 001°51'0 0.0
2017-Aug-17 11:30N 50°58' E 001°51'0 0.8
2017-Aug-17 11:00N 50°58' E 001°51'816.1
2017-Aug-17 10:31N 50°58' E 001°38'918.0
2017-Aug-17 10:00N 51°04' E 001°26'510.7
2017-Aug-17 09:30N 51°07' E 001°20'0 0.0
2017-Aug-17 08:57N 51°07' E 001°20'3 5.7
2017-Aug-17 08:30N 51°07' E 001°24'917.5
2017-Aug-17 08:00N 51°03' E 001°36'917.7
2017-Aug-17 07:30N 50°58' E 001°49'2 3.4
2017-Aug-17 07:00N 50°58' E 001°51'0 0.0
2017-Aug-17 06:30N 50°58' E 001°51'3 5.4
2017-Aug-17 06:00N 50°58' E 001°47'917.3
2017-Aug-17 05:31N 51°00' E 001°34'816.5
2017-Aug-17 05:00N 51°06' E 001°24'3 5.6
2017-Aug-17 04:29N 51°07' E 001°20'0 0.0
2017-Aug-17 04:00N 51°07' E 001°20'2 3.2
2017-Aug-17 03:31N 51°07' E 001°23'917.6
2017-Aug-17 03:01N 51°03' E 001°35'917.4
2017-Aug-17 02:30N 50°58' E 001°46'3 6.2
2017-Aug-17 02:00N 50°58' E 001°51'0 0.0
2017-Aug-17 01:30N 50°58' E 001°51'3 6.0
2017-Aug-17 01:00N 50°58' E 001°46'713.8
2017-Aug-17 00:30N 50°59' E 001°36'816.2
2017-Aug-17 00:00N 51°04' E 001°26'5 9.6
2017-Aug-16 23:30N 51°07' E 001°20'0 0.0
2017-Aug-16 23:00N 51°07' E 001°20'2 3.9
2017-Aug-16 22:30N 51°07' E 001°23'918.0
2017-Aug-16 22:00N 51°04' E 001°37'917.6
2017-Aug-16 21:30N 50°58' E 001°47'3 5.5
2017-Aug-16 21:00N 50°58' E 001°51'0 0.0
2017-Aug-16 20:30N 50°58' E 001°51'4 7.4
2017-Aug-16 20:00N 50°58' E 001°45'816.3
2017-Aug-16 19:30N 51°02' E 001°34'816.8
2017-Aug-16 19:00N 51°06' E 001°23'2 3.8
2017-Aug-16 18:29N 51°07' E 001°20'0 0.2
2017-Aug-16 18:00N 51°07' E 001°20'713.2
2017-Aug-16 17:31N 51°05' E 001°30'918.3
2017-Aug-16 17:01N 50°60' E 001°42'612.2
2017-Aug-16 16:30N 50°58' E 001°51'0 0.0
2017-Aug-16 16:00N 50°58' E 001°51'2 3.3
2017-Aug-16 15:30N 50°58' E 001°49'815.7
2017-Aug-16 15:00N 50°58' E 001°36'918.5
2017-Aug-16 14:30N 51°04' E 001°25'4 8.6
2017-Aug-16 13:59N 51°07' E 001°20'0 0.0
2017-Aug-16 13:29N 51°07' E 001°20'3 7.3
2017-Aug-16 13:00N 51°06' E 001°25'1020.8
2017-Aug-16 12:30N 51°00' E 001°39'815.9
2017-Aug-16 12:00N 50°58' E 001°51'0 0.1
2017-Aug-16 11:30N 50°58' E 001°51'1 1.8
2017-Aug-16 11:00N 50°58' E 001°50'815.1
2017-Aug-16 10:30N 50°59' E 001°38'917.5
2017-Aug-16 10:00N 51°04' E 001°27'510.1
2017-Aug-16 09:30N 51°07' E 001°20'0 0.0
2017-Aug-16 09:00N 51°07' E 001°20'4 7.6
2017-Aug-16 08:30N 51°07' E 001°26'917.7
2017-Aug-16 08:00N 51°01' E 001°37'816.8
2017-Aug-16 07:30N 50°58' E 001°50'1 2.2
2017-Aug-16 07:00N 50°58' E 001°51'0 0.0
2017-Aug-16 06:30N 50°58' E 001°51'2 4.9
2017-Aug-16 06:00N 50°58' E 001°47'917.4
2017-Aug-16 05:30N 51°01' E 001°35'917.3
2017-Aug-16 05:00N 51°06' E 001°23'2 4.7
2017-Aug-16 04:31N 51°07' E 001°20'0 0.0
2017-Aug-16 04:01N 51°07' E 001°20'3 5.6
2017-Aug-16 03:30N 51°07' E 001°25'816.1
2017-Aug-16 03:00N 51°02' E 001°35'816.6
2017-Aug-16 02:30N 50°58' E 001°47'3 5.8
2017-Aug-16 02:00N 50°58' E 001°51'0 0.0
2017-Aug-16 01:30N 50°58' E 001°51'2 4.5
2017-Aug-16 01:00N 50°58' E 001°48'714.4
2017-Aug-16 00:30N 51°00' E 001°37'816.4
2017-Aug-16 00:00N 51°05' E 001°26'5 9.0
2017-Aug-15 23:30N 51°07' E 001°20'0 0.0
2017-Aug-15 23:00N 51°07' E 001°20'1 1.8
2017-Aug-15 22:30N 51°07' E 001°22'918.4
2017-Aug-15 22:00N 51°03' E 001°34'918.5
2017-Aug-15 21:30N 50°58' E 001°47'3 5.3
2017-Aug-15 21:00N 50°58' E 001°51'0 0.0
2017-Aug-15 20:30N 50°58' E 001°51'3 6.5
2017-Aug-15 20:01N 50°58' E 001°46'816.6
2017-Aug-15 19:31N 51°01' E 001°34'917.4
2017-Aug-15 19:00N 51°06' E 001°23'2 4.3
2017-Aug-15 18:30N 51°07' E 001°20'0 0.0
2017-Aug-15 18:00N 51°07' E 001°20'5 9.9
2017-Aug-15 17:30N 51°06' E 001°28'918.8
2017-Aug-15 17:00N 51°01' E 001°40'714.7
2017-Aug-15 16:30N 50°58' E 001°51'0 0.4
2017-Aug-15 16:00N 50°58' E 001°51'1 1.8
2017-Aug-15 15:30N 50°58' E 001°50'918.5
2017-Aug-15 15:01N 51°00' E 001°35'918.8
2017-Aug-15 14:31N 51°06' E 001°24'3 5.4
2017-Aug-15 14:00N 51°07' E 001°20'0 0.0
2017-Aug-15 13:30N 51°07' E 001°20'3 6.7
2017-Aug-15 13:00N 51°06' E 001°25'1020.0
2017-Aug-15 12:30N 50°60' E 001°37'918.0
2017-Aug-15 12:00N 50°58' E 001°51'0 0.3
2017-Aug-15 11:30N 50°58' E 001°51'1 1.1
2017-Aug-15 11:01N 50°58' E 001°50'814.9
2017-Aug-15 10:30N 50°58' E 001°38'917.4
2017-Aug-15 10:01N 51°04' E 001°28'6 8.0
2017-Aug-15 09:15N 51°07' E 001°20'0 0.0
2017-Aug-15 08:57N 51°07' E 001°20'3 6.0
2017-Aug-15 08:30N 51°07' E 001°24'917.2
2017-Aug-15 08:00N 51°02' E 001°36'917.2
2017-Aug-15 07:31N 50°58' E 001°48'2 4.0
2017-Aug-15 07:01N 50°58' E 001°51'0 0.0
2017-Aug-15 06:30N 50°58' E 001°51'1 2.2
2017-Aug-15 06:00N 50°58' E 001°49'917.1
2017-Aug-15 05:31N 51°00' E 001°36'917.4
2017-Aug-15 05:01N 51°05' E 001°25'4 6.8
2017-Aug-15 04:28N 51°07' E 001°20'0 0.0
2017-Aug-15 04:00N 51°07' E 001°20'4 7.1
2017-Aug-15 03:30N 51°07' E 001°26'917.5
2017-Aug-15 03:00N 51°02' E 001°37'816.2
2017-Aug-15 02:30N 50°58' E 001°49'2 3.3
2017-Aug-15 02:01N 50°58' E 001°51'0 0.0
2017-Aug-15 01:31N 50°58' E 001°51'2 4.6
2017-Aug-15 01:01N 50°58' E 001°48'816.4
2017-Aug-15 00:31N 50°59' E 001°35'917.5
2017-Aug-15 00:01N 51°05' E 001°24'4 7.1
2017-Aug-14 23:30N 51°07' E 001°20'0 0.0
2017-Aug-14 23:00N 51°07' E 001°20'2 3.2
2017-Aug-14 22:31N 51°07' E 001°23'918.7
2017-Aug-14 22:01N 51°02' E 001°35'918.5
2017-Aug-14 21:31N 50°58' E 001°48'2 3.7
2017-Aug-14 21:00N 50°58' E 001°51'0 0.0
2017-Aug-14 20:30N 50°58' E 001°51'5 9.5
2017-Aug-14 20:00N 50°58' E 001°44'917.8
2017-Aug-14 19:30N 51°02' E 001°31'917.2
2017-Aug-14 19:01N 51°07' E 001°20'0 0.3
2017-Aug-14 18:30N 51°07' E 001°20'0 0.0
2017-Aug-14 18:00N 51°07' E 001°20'613.1
2017-Aug-14 17:31N 51°05' E 001°30'918.5
2017-Aug-14 17:01N 50°60' E 001°42'612.2
2017-Aug-14 16:30N 50°58' E 001°51'0 0.0
2017-Aug-14 16:00N 50°58' E 001°51'0 0.6
2017-Aug-14 15:30N 50°58' E 001°51'917.1
2017-Aug-14 15:00N 51°00' E 001°38'918.7
2017-Aug-14 14:30N 51°05' E 001°25'4 6.3
2017-Aug-14 13:55N 51°07' E 001°20'0 0.0
2017-Aug-14 13:29N 51°07' E 001°20'4 8.5
2017-Aug-14 13:01N 51°07' E 001°27'1019.4
2017-Aug-14 12:31N 51°01' E 001°39'816.1
2017-Aug-14 12:01N 50°58' E 001°51'0 0.2
2017-Aug-14 11:30N 50°58' E 001°51'0 1.0
2017-Aug-14 11:01N 50°58' E 001°51'815.1
2017-Aug-14 10:30N 50°59' E 001°39'917.8
2017-Aug-14 10:00N 51°04' E 001°27'510.7
2017-Aug-14 09:30N 51°07' E 001°20'0 0.0
2017-Aug-14 08:59N 51°07' E 001°20'4 8.3
2017-Aug-14 08:30N 51°07' E 001°26'917.5
2017-Aug-14 08:00N 51°01' E 001°37'816.8
2017-Aug-14 07:30N 50°58' E 001°50'1 2.1
2017-Aug-14 07:00N 50°58' E 001°51'0 0.0
2017-Aug-14 06:30N 50°58' E 001°51'3 5.7
2017-Aug-14 06:01N 50°58' E 001°47'917.4
2017-Aug-14 05:30N 51°01' E 001°34'918.6
2017-Aug-14 05:00N 51°07' E 001°22'1 2.6
2017-Aug-14 04:30N 51°07' E 001°20'0 0.0
2017-Aug-14 04:00N 51°07' E 001°20'2 4.5
2017-Aug-14 03:31N 51°07' E 001°24'917.4
2017-Aug-14 03:01N 51°03' E 001°36'816.6
2017-Aug-14 02:31N 50°58' E 001°47'3 5.2
2017-Aug-14 02:00N 50°58' E 001°51'0 0.0
2017-Aug-14 01:31N 50°58' E 001°51'0 0.0
2017-Aug-14 01:01N 50°58' E 001°51'0 0.0
2017-Aug-14 00:30N 50°58' E 001°51'0 0.0
2017-Aug-14 00:00N 50°58' E 001°51'0 0.5
2017-Aug-13 23:30N 50°58' E 001°51'815.5
2017-Aug-13 23:00N 50°58' E 001°38'714.9
2017-Aug-13 22:30N 51°03' E 001°29'714.6
2017-Aug-13 22:00N 51°07' E 001°20'0 0.0
2017-Aug-13 21:30N 51°07' E 001°20'2 3.1
2017-Aug-13 21:00N 51°07' E 001°23'815.5
2017-Aug-13 20:31N 51°04' E 001°34'917.5
2017-Aug-13 20:01N 50°58' E 001°44'4 8.6
2017-Aug-13 19:31N 50°58' E 001°51'0 0.0
2017-Aug-13 19:00N 50°58' E 001°51'2 3.2
2017-Aug-13 18:30N 50°58' E 001°49'816.0
2017-Aug-13 18:00N 50°60' E 001°36'918.8
2017-Aug-13 17:30N 51°06' E 001°25'3 6.5
2017-Aug-13 16:59N 51°07' E 001°20'0 0.3
2017-Aug-13 16:29N 51°07' E 001°20'713.8
2017-Aug-13 16:00N 51°05' E 001°30'1019.3
2017-Aug-13 15:30N 50°59' E 001°42'611.3
2017-Aug-13 15:00N 50°58' E 001°51'0 0.0
2017-Aug-13 14:30N 50°58' E 001°51'2 3.2
2017-Aug-13 14:00N 50°58' E 001°49'917.2
2017-Aug-13 13:30N 50°59' E 001°35'  

Dump ship's entire track history